createdAt,value
2018-12-06T00:00:49.020Z,22.57
2018-12-06T00:01:58.204Z,22.57
2018-12-06T00:03:07.676Z,22.49
2018-12-06T00:04:16.604Z,22.49
2018-12-06T00:05:26.037Z,22.46
2018-12-06T00:06:35.732Z,22.4
2018-12-06T00:07:44.679Z,22.39
2018-12-06T00:08:54.345Z,22.43
2018-12-06T00:10:03.517Z,22.42
2018-12-06T00:11:12.950Z,22.43
2018-12-06T00:12:21.876Z,22.42
2018-12-06T00:13:31.290Z,22.46
2018-12-06T00:14:40.483Z,22.37
2018-12-06T00:15:49.419Z,22.4
2018-12-06T00:16:58.873Z,22.39
2018-12-06T00:18:08.042Z,22.33
2018-12-06T00:19:17.474Z,22.37
2018-12-06T00:20:26.890Z,22.36
2018-12-06T00:21:35.804Z,22.37
2018-12-06T00:22:44.996Z,22.37
2018-12-06T00:23:54.280Z,22.28
2018-12-06T00:25:03.212Z,22.33
2018-12-06T00:26:12.396Z,22.31
2018-12-06T00:27:22.055Z,22.28
2018-12-06T00:28:31.241Z,22.25
2018-12-06T00:29:40.670Z,22.27
2018-12-06T00:30:50.361Z,22.27
2018-12-06T00:31:59.810Z,22.28
2018-12-06T00:33:09.002Z,22.33
2018-12-06T00:34:18.420Z,22.24
2018-12-06T00:35:27.584Z,22.21
2018-12-06T00:36:37.280Z,22.28
2018-12-06T00:37:46.948Z,22.27
2018-12-06T00:38:56.128Z,22.25
2018-12-06T00:40:05.069Z,22.18
2018-12-06T00:41:14.027Z,22.21
2018-12-06T00:42:23.709Z,22.21
2018-12-06T00:43:33.146Z,22.18
2018-12-06T00:44:42.598Z,22.17
2018-12-06T00:45:52.028Z,22.14
2018-12-06T00:47:01.209Z,22.15
2018-12-06T00:48:10.876Z,22.14
2018-12-06T00:49:20.315Z,22.15
2018-12-06T00:50:29.494Z,22.18
2018-12-06T00:51:38.680Z,22.21
2018-12-06T00:52:47.609Z,22.22
2018-12-06T00:53:57.156Z,22.18
2018-12-06T00:55:06.587Z,22.17
2018-12-06T00:56:16.026Z,22.27
2018-12-06T00:57:25.450Z,22.14
2018-12-06T00:58:34.652Z,22.14
2018-12-06T00:59:44.122Z,22.2
2018-12-06T01:00:53.299Z,22.05
2018-12-06T01:02:02.487Z,22.1
2018-12-06T01:03:11.664Z,22.14
2018-12-06T01:04:20.845Z,22.15
2018-12-06T01:05:30.282Z,22.09
2018-12-06T01:06:39.224Z,22.07
2018-12-06T01:07:49.160Z,22.15
2018-12-06T01:08:58.340Z,22.09
2018-12-06T01:10:08.027Z,22.14
2018-12-06T01:11:17.453Z,22.05
2018-12-06T01:12:26.696Z,22.09
2018-12-06T01:13:35.629Z,22.12
2018-12-06T01:14:44.549Z,22.12
2018-12-06T01:15:53.471Z,22.07
2018-12-06T01:17:02.976Z,22.09
2018-12-06T01:18:11.887Z,22.03
2018-12-06T01:19:21.563Z,21.96
2018-12-06T01:20:31.001Z,22.1
2018-12-06T01:21:40.457Z,22.02
2018-12-06T01:22:49.639Z,21.96
2018-12-06T01:23:59.311Z,22
2018-12-06T01:25:08.254Z,21.96
2018-12-06T01:26:17.188Z,21.94
2018-12-06T01:27:26.865Z,22
2018-12-06T01:28:36.081Z,21.96
2018-12-06T01:29:45.020Z,21.94
2018-12-06T01:30:54.445Z,21.92
2018-12-06T01:32:03.116Z,21.99
2018-12-06T01:33:12.600Z,22
2018-12-06T01:34:21.551Z,21.96
2018-12-06T01:35:30.593Z,21.98
2018-12-06T01:36:39.767Z,21.98
2018-12-06T01:37:48.993Z,21.96
2018-12-06T01:38:58.171Z,21.98
2018-12-06T01:40:07.349Z,22.03
2018-12-06T01:41:16.800Z,21.92
2018-12-06T01:42:26.948Z,21.96
2018-12-06T01:43:36.637Z,22.02
2018-12-06T01:44:46.071Z,22.02
2018-12-06T01:45:55.264Z,21.98
2018-12-06T01:47:03.954Z,21.94
2018-12-06T01:48:12.907Z,22
2018-12-06T01:49:22.599Z,21.99
2018-12-06T01:50:32.295Z,21.98
2018-12-06T01:51:41.568Z,21.99
2018-12-06T01:52:51.001Z,21.9
2018-12-06T01:54:00.437Z,22.02
2018-12-06T01:55:09.632Z,21.96
2018-12-06T01:56:19.059Z,21.99
2018-12-06T01:57:28.981Z,21.98
2018-12-06T01:58:38.417Z,21.99
2018-12-06T01:59:47.858Z,22
2018-12-06T02:00:57.285Z,21.84
2018-12-06T02:02:06.457Z,22
2018-12-06T02:03:15.665Z,21.9
2018-12-06T02:04:25.091Z,21.96
2018-12-06T02:05:34.774Z,21.98
2018-12-06T02:06:44.202Z,21.86
2018-12-06T02:07:53.629Z,21.99
2018-12-06T02:09:02.558Z,21.99
2018-12-06T02:10:11.719Z,21.9
2018-12-06T02:11:20.899Z,21.99
2018-12-06T02:12:29.830Z,21.94
2018-12-06T02:13:39.255Z,21.92
2018-12-06T02:14:48.443Z,21.9
2018-12-06T02:15:57.616Z,21.92
2018-12-06T02:17:07.313Z,21.86
2018-12-06T02:18:16.989Z,21.94
2018-12-06T02:19:26.043Z,21.9
2018-12-06T02:20:35.227Z,21.86
2018-12-06T02:21:44.664Z,21.9
2018-12-06T02:22:54.111Z,21.83
2018-12-06T02:24:03.789Z,21.84
2018-12-06T02:25:13.207Z,21.92
2018-12-06T02:26:22.641Z,21.86
2018-12-06T02:27:31.571Z,21.86
2018-12-06T02:28:41.493Z,21.9
2018-12-06T02:29:51.443Z,21.82
2018-12-06T02:31:00.661Z,21.75
2018-12-06T02:32:10.360Z,21.84
2018-12-06T02:33:19.809Z,21.75
2018-12-06T02:34:29.305Z,21.75
2018-12-06T02:35:38.764Z,21.74
2018-12-06T02:36:47.955Z,21.84
2018-12-06T02:37:57.407Z,21.72
2018-12-06T02:39:07.393Z,21.88
2018-12-06T02:40:17.095Z,21.75
2018-12-06T02:41:26.543Z,21.9
2018-12-06T02:42:36.234Z,21.84
2018-12-06T02:43:46.182Z,21.75
2018-12-06T02:44:56.145Z,21.84
2018-12-06T02:46:05.895Z,21.77
2018-12-06T02:47:15.353Z,21.8
2018-12-06T02:48:24.821Z,21.84
2018-12-06T02:49:34.364Z,21.8
2018-12-06T02:50:43.819Z,21.86
2018-12-06T02:51:53.257Z,21.82
2018-12-06T02:53:02.182Z,21.8
2018-12-06T02:54:11.892Z,21.8
2018-12-06T02:55:21.091Z,21.88
2018-12-06T02:56:30.826Z,21.79
2018-12-06T02:57:40.538Z,21.72
2018-12-06T02:58:50.230Z,21.79
2018-12-06T02:59:59.670Z,21.74
2018-12-06T03:01:08.939Z,21.75
2018-12-06T03:02:18.363Z,21.77
2018-12-06T03:03:28.316Z,21.75
2018-12-06T03:04:37.761Z,21.8
2018-12-06T03:05:47.442Z,21.74
2018-12-06T03:06:56.717Z,21.74
2018-12-06T03:08:06.146Z,21.77
2018-12-06T03:09:15.596Z,21.75
2018-12-06T03:10:24.784Z,21.74
2018-12-06T03:11:34.247Z,21.72
2018-12-06T03:12:43.452Z,21.79
2018-12-06T03:13:52.895Z,21.72
2018-12-06T03:15:02.085Z,21.75
2018-12-06T03:16:11.270Z,21.74
2018-12-06T03:17:20.702Z,21.79
2018-12-06T03:18:29.650Z,21.74
2018-12-06T03:19:39.099Z,21.71
2018-12-06T03:20:48.294Z,21.71
2018-12-06T03:21:58.232Z,21.71
2018-12-06T03:23:07.671Z,21.75
2018-12-06T03:24:17.360Z,21.75
2018-12-06T03:25:27.290Z,21.68
2018-12-06T03:26:36.249Z,21.71
2018-12-06T03:27:45.439Z,21.75
2018-12-06T03:28:55.133Z,21.72
2018-12-06T03:30:04.877Z,21.75
2018-12-06T03:31:14.607Z,21.71
2018-12-06T03:32:24.348Z,21.74
2018-12-06T03:33:34.135Z,21.74
2018-12-06T03:34:43.343Z,21.69
2018-12-06T03:35:53.046Z,21.74
2018-12-06T03:37:02.731Z,21.69
2018-12-06T03:38:12.161Z,21.69
2018-12-06T03:39:21.099Z,21.67
2018-12-06T03:40:30.532Z,21.71
2018-12-06T03:41:39.977Z,21.67
2018-12-06T03:42:49.159Z,21.77
2018-12-06T03:43:58.338Z,21.65
2018-12-06T03:45:07.789Z,21.71
2018-12-06T03:46:17.463Z,21.67
2018-12-06T03:47:26.659Z,21.68
2018-12-06T03:48:36.133Z,21.69
2018-12-06T03:49:45.577Z,21.71
2018-12-06T03:50:54.556Z,21.65
2018-12-06T03:52:04.565Z,21.65
2018-12-06T03:53:13.850Z,21.68
2018-12-06T03:54:23.568Z,21.64
2018-12-06T03:55:33.259Z,21.67
2018-12-06T03:56:42.443Z,21.61
2018-12-06T03:57:52.147Z,21.67
2018-12-06T03:59:01.815Z,21.65
2018-12-06T04:00:11.237Z,21.68
2018-12-06T04:01:20.504Z,21.61
2018-12-06T04:02:30.170Z,21.61
2018-12-06T04:03:39.850Z,21.64
2018-12-06T04:04:49.337Z,21.64
2018-12-06T04:05:59.013Z,21.62
2018-12-06T04:07:08.442Z,21.68
2018-12-06T04:08:17.899Z,21.68
2018-12-06T04:09:27.574Z,21.59
2018-12-06T04:10:37.014Z,21.61
2018-12-06T04:11:46.718Z,21.69
2018-12-06T04:12:56.157Z,21.68
2018-12-06T04:14:05.629Z,21.62
2018-12-06T04:15:15.352Z,21.61
2018-12-06T04:16:24.821Z,21.61
2018-12-06T04:17:34.278Z,21.64
2018-12-06T04:18:43.212Z,21.64
2018-12-06T04:19:52.959Z,21.61
2018-12-06T04:21:01.922Z,21.65
2018-12-06T04:22:11.099Z,21.59
2018-12-06T04:23:20.045Z,21.58
2018-12-06T04:24:29.246Z,21.58
2018-12-06T04:25:38.688Z,21.56
2018-12-06T04:26:48.174Z,21.54
2018-12-06T04:27:57.640Z,21.59
2018-12-06T04:29:06.826Z,21.58
2018-12-06T04:30:15.773Z,21.59
2018-12-06T04:31:25.211Z,21.56
2018-12-06T04:32:34.676Z,21.56
2018-12-06T04:33:44.366Z,21.54
2018-12-06T04:34:53.820Z,21.58
2018-12-06T04:36:03.026Z,21.56
2018-12-06T04:37:12.546Z,21.52
2018-12-06T04:38:22.567Z,21.53
2018-12-06T04:39:32.291Z,21.52
2018-12-06T04:40:41.973Z,21.53
2018-12-06T04:41:51.803Z,21.52
2018-12-06T04:43:01.251Z,21.49
2018-12-06T04:44:11.190Z,21.58
2018-12-06T04:45:20.617Z,21.58
2018-12-06T04:46:30.294Z,21.53
2018-12-06T04:47:39.721Z,21.53
2018-12-06T04:48:49.688Z,21.58
2018-12-06T04:49:58.890Z,21.54
2018-12-06T04:51:08.327Z,21.54
2018-12-06T04:52:18.017Z,21.56
2018-12-06T04:53:27.539Z,21.59
2018-12-06T04:54:37.235Z,21.52
2018-12-06T04:55:46.452Z,21.5
2018-12-06T04:56:56.134Z,21.58
2018-12-06T04:58:05.589Z,21.54
2018-12-06T04:59:15.293Z,21.49
2018-12-06T05:00:24.485Z,21.49
2018-12-06T05:01:34.427Z,21.49
2018-12-06T05:02:44.089Z,21.52
2018-12-06T05:03:53.537Z,21.53
2018-12-06T05:05:02.713Z,21.42
2018-12-06T05:06:11.892Z,21.47
2018-12-06T05:07:21.577Z,21.58
2018-12-06T05:08:31.013Z,21.47
2018-12-06T05:09:40.251Z,21.5
2018-12-06T05:10:49.673Z,21.47
2018-12-06T05:11:59.168Z,21.49
2018-12-06T05:13:08.600Z,21.43
2018-12-06T05:14:17.779Z,21.47
2018-12-06T05:15:28.633Z,21.49
2018-12-06T05:16:38.577Z,21.49
2018-12-06T05:17:47.523Z,21.49
2018-12-06T05:18:56.699Z,21.49
2018-12-06T05:20:05.884Z,21.47
2018-12-06T05:21:15.083Z,21.52
2018-12-06T05:22:24.015Z,21.49
2018-12-06T05:23:33.676Z,21.49
2018-12-06T05:24:43.122Z,21.42
2018-12-06T05:25:52.819Z,21.52
2018-12-06T05:27:01.994Z,21.37
2018-12-06T05:28:10.950Z,21.46
2018-12-06T05:29:19.881Z,21.49
2018-12-06T05:30:29.562Z,21.46
2018-12-06T05:31:39.466Z,21.4
2018-12-06T05:32:48.139Z,21.4
2018-12-06T05:33:57.817Z,21.49
2018-12-06T05:35:07.244Z,21.4
2018-12-06T05:36:16.418Z,21.4
2018-12-06T05:37:26.103Z,21.37
2018-12-06T05:38:35.591Z,21.43
2018-12-06T05:39:44.999Z,21.46
2018-12-06T05:40:54.715Z,21.49
2018-12-06T05:42:04.424Z,21.37
2018-12-06T05:43:13.607Z,21.4
2018-12-06T05:44:22.564Z,21.37
2018-12-06T05:45:31.822Z,21.38
2018-12-06T05:46:40.744Z,21.44
2018-12-06T05:47:49.924Z,21.43
2018-12-06T05:48:59.127Z,21.43
2018-12-06T05:50:08.605Z,21.38
2018-12-06T05:51:18.887Z,21.38
2018-12-06T05:52:28.087Z,21.4
2018-12-06T05:53:37.513Z,21.35
2018-12-06T05:54:46.696Z,21.44
2018-12-06T05:55:56.407Z,21.4
2018-12-06T05:57:05.863Z,21.42
2018-12-06T05:58:15.304Z,21.42
2018-12-06T05:59:25.253Z,21.47
2018-12-06T06:00:34.931Z,21.35
2018-12-06T06:01:44.380Z,21.4
2018-12-06T06:02:53.586Z,21.43
2018-12-06T06:04:03.269Z,21.49
2018-12-06T06:05:12.990Z,21.43
2018-12-06T06:06:22.581Z,21.42
2018-12-06T06:07:32.025Z,21.46
2018-12-06T06:08:41.233Z,21.4
2018-12-06T06:09:50.671Z,21.43
2018-12-06T06:10:59.860Z,21.47
2018-12-06T06:12:09.574Z,21.44
2018-12-06T06:13:19.531Z,21.47
2018-12-06T06:14:28.725Z,21.4
2018-12-06T06:15:38.177Z,21.44
2018-12-06T06:16:47.633Z,21.49
2018-12-06T06:17:57.313Z,21.49
2018-12-06T06:19:06.513Z,21.38
2018-12-06T06:20:15.679Z,21.37
2018-12-06T06:21:24.896Z,21.35
2018-12-06T06:22:34.347Z,21.37
2018-12-06T06:23:43.527Z,21.37
2018-12-06T06:24:52.731Z,21.32
2018-12-06T06:26:02.441Z,21.42
2018-12-06T06:27:12.159Z,21.31
2018-12-06T06:28:21.599Z,21.37
2018-12-06T06:29:31.073Z,21.37
2018-12-06T06:30:40.549Z,21.46
2018-12-06T06:31:49.238Z,21.38
2018-12-06T06:32:58.439Z,21.32
2018-12-06T06:34:07.876Z,21.43
2018-12-06T06:35:17.557Z,21.35
2018-12-06T06:36:26.985Z,21.37
2018-12-06T06:37:36.175Z,21.34
2018-12-06T06:38:45.348Z,21.35
2018-12-06T06:39:54.539Z,21.34
2018-12-06T06:41:03.225Z,21.35
2018-12-06T06:42:12.402Z,21.42
2018-12-06T06:43:21.608Z,21.4
2018-12-06T06:44:31.294Z,21.38
2018-12-06T06:45:40.219Z,21.37
2018-12-06T06:46:49.897Z,21.34
2018-12-06T06:47:59.367Z,21.42
2018-12-06T06:49:16.137Z,21.37
2018-12-06T06:50:25.830Z,21.35
2018-12-06T06:51:35.014Z,21.35
2018-12-06T06:52:44.200Z,21.35
2018-12-06T06:53:55.210Z,21.44
2018-12-06T06:55:04.645Z,21.42
2018-12-06T06:56:13.840Z,21.42
2018-12-06T06:57:23.033Z,21.37
2018-12-06T06:58:32.473Z,21.35
2018-12-06T06:59:41.917Z,21.42
2018-12-06T07:00:51.360Z,21.38
2018-12-06T07:02:01.329Z,21.35
2018-12-06T07:03:10.273Z,21.35
2018-12-06T07:04:19.454Z,21.35
2018-12-06T07:05:28.637Z,21.4
2018-12-06T07:06:38.051Z,21.43
2018-12-06T07:07:47.228Z,21.37
2018-12-06T07:08:56.166Z,21.43
2018-12-06T07:10:05.617Z,21.37
2018-12-06T07:11:15.389Z,21.35
2018-12-06T07:12:24.340Z,21.38
2018-12-06T07:13:33.519Z,21.37
2018-12-06T07:14:42.940Z,21.4
2018-12-06T07:15:52.627Z,21.32
2018-12-06T07:17:01.858Z,21.32
2018-12-06T07:18:11.291Z,21.42
2018-12-06T07:19:21.005Z,21.49
2018-12-06T07:20:30.469Z,21.49
2018-12-06T07:21:39.894Z,21.47
2018-12-06T07:22:49.565Z,21.44
2018-12-06T07:23:58.516Z,21.4
2018-12-06T07:25:07.959Z,21.5
2018-12-06T07:26:16.914Z,21.34
2018-12-06T07:27:26.119Z,21.34
2018-12-06T07:28:35.785Z,21.4
2018-12-06T07:29:45.228Z,21.44
2018-12-06T07:30:55.726Z,21.35
2018-12-06T07:32:05.412Z,21.4
2018-12-06T07:33:14.373Z,21.42
2018-12-06T07:34:23.557Z,21.35
2018-12-06T07:35:34.642Z,21.4
2018-12-06T07:36:43.823Z,21.4
2018-12-06T07:37:53.244Z,21.37
2018-12-06T07:39:03.284Z,21.38
2018-12-06T07:40:12.475Z,21.4
2018-12-06T07:41:21.907Z,21.35
2018-12-06T07:42:31.333Z,21.37
2018-12-06T07:43:40.714Z,21.29
2018-12-06T07:44:49.902Z,21.4
2018-12-06T07:45:59.866Z,21.32
2018-12-06T07:47:09.051Z,21.37
2018-12-06T07:48:18.002Z,21.34
2018-12-06T07:49:27.701Z,21.34
2018-12-06T07:50:36.917Z,21.42
2018-12-06T07:51:46.590Z,21.32
2018-12-06T07:52:56.292Z,21.46
2018-12-06T07:54:05.215Z,21.34
2018-12-06T07:55:14.398Z,21.38
2018-12-06T07:56:23.338Z,21.35
2018-12-06T07:57:33.508Z,21.35
2018-12-06T07:58:43.181Z,21.34
2018-12-06T07:59:52.652Z,21.32
2018-12-06T08:01:01.869Z,21.4
2018-12-06T08:02:11.073Z,21.37
2018-12-06T08:03:20.539Z,21.34
2018-12-06T08:04:29.816Z,21.37
2018-12-06T08:05:39.042Z,21.42
2018-12-06T08:06:47.975Z,21.37
2018-12-06T08:07:57.184Z,21.32
2018-12-06T08:09:06.929Z,21.34
2018-12-06T08:10:16.128Z,21.43
2018-12-06T08:11:25.394Z,21.38
2018-12-06T08:12:34.560Z,21.38
2018-12-06T08:13:43.773Z,21.4
2018-12-06T08:14:52.736Z,21.43
2018-12-06T08:16:01.941Z,21.43
2018-12-06T08:17:10.882Z,21.49
2018-12-06T08:18:20.118Z,21.4
2018-12-06T08:19:29.819Z,21.46
2018-12-06T08:20:39.295Z,21.46
2018-12-06T08:21:48.231Z,21.38
2018-12-06T08:22:57.669Z,21.43
2018-12-06T08:24:07.411Z,21.46
2018-12-06T08:25:18.871Z,21.47
2018-12-06T08:26:27.809Z,21.42
2018-12-06T08:27:37.006Z,21.42
2018-12-06T08:28:46.449Z,21.4
2018-12-06T08:29:56.151Z,21.42
2018-12-06T08:31:05.851Z,21.4
2018-12-06T08:32:15.340Z,21.37
2018-12-06T08:33:25.043Z,21.42
2018-12-06T08:34:34.267Z,21.4
2018-12-06T08:35:43.191Z,21.38
2018-12-06T08:36:51.872Z,21.38
2018-12-06T08:38:00.810Z,21.44
2018-12-06T08:39:09.778Z,21.37
2018-12-06T08:40:18.981Z,21.4
2018-12-06T08:41:28.175Z,21.49
2018-12-06T08:42:45.401Z,21.47
2018-12-06T08:43:55.064Z,21.44
2018-12-06T08:45:04.501Z,21.49
2018-12-06T08:46:13.680Z,21.4
2018-12-06T08:47:22.641Z,21.44
2018-12-06T08:48:31.847Z,21.49
2018-12-06T08:49:40.795Z,21.47
2018-12-06T08:50:50.673Z,21.47
2018-12-06T08:52:00.107Z,21.49
2018-12-06T08:53:09.308Z,21.43
2018-12-06T08:54:18.752Z,21.53
2018-12-06T08:55:28.187Z,21.47
2018-12-06T08:56:37.424Z,21.49
2018-12-06T08:57:47.157Z,21.47
2018-12-06T08:58:56.592Z,21.53
2018-12-06T09:00:06.039Z,21.52
2018-12-06T09:01:15.222Z,21.5
2018-12-06T09:02:24.667Z,21.49
2018-12-06T09:03:33.599Z,21.53
2018-12-06T09:04:43.528Z,21.43
2018-12-06T09:05:52.955Z,21.47
2018-12-06T09:07:02.385Z,21.59
2018-12-06T09:08:12.081Z,21.43
2018-12-06T09:09:21.762Z,21.42
2018-12-06T09:10:31.205Z,21.53
2018-12-06T09:11:40.386Z,21.52
2018-12-06T09:12:50.083Z,21.43
2018-12-06T09:13:59.532Z,21.53
2018-12-06T09:15:08.978Z,21.47
2018-12-06T09:16:18.833Z,21.49
2018-12-06T09:17:28.059Z,21.53
2018-12-06T09:18:37.504Z,21.56
2018-12-06T09:19:47.215Z,21.56
2018-12-06T09:20:56.415Z,21.58
2018-12-06T09:22:05.868Z,21.53
2018-12-06T09:23:15.310Z,21.5
2018-12-06T09:24:24.514Z,21.53
2018-12-06T09:25:33.190Z,21.53
2018-12-06T09:26:42.674Z,21.44
2018-12-06T09:27:51.643Z,21.52
2018-12-06T09:29:00.636Z,21.61
2018-12-06T09:30:09.575Z,21.56
2018-12-06T09:31:19.004Z,21.59
2018-12-06T09:32:28.042Z,21.53
2018-12-06T09:33:37.686Z,21.52
2018-12-06T09:34:47.145Z,21.54
2018-12-06T09:35:56.071Z,21.54
2018-12-06T09:37:05.279Z,21.59
2018-12-06T09:38:14.518Z,21.56
2018-12-06T09:39:23.698Z,21.5
2018-12-06T09:40:33.149Z,21.56
2018-12-06T09:41:42.598Z,21.56
2018-12-06T09:42:52.109Z,21.49
2018-12-06T09:44:01.789Z,21.54
2018-12-06T09:45:10.984Z,21.62
2018-12-06T09:46:20.447Z,21.52
2018-12-06T09:47:29.632Z,21.52
2018-12-06T09:48:38.587Z,21.59
2018-12-06T09:49:48.538Z,21.56
2018-12-06T09:50:58.241Z,21.58
2018-12-06T09:52:07.767Z,21.53
2018-12-06T09:53:16.448Z,21.54
2018-12-06T09:54:26.129Z,21.53
2018-12-06T09:55:35.327Z,21.56
2018-12-06T09:56:44.259Z,21.58
2018-12-06T09:57:53.949Z,21.54
2018-12-06T09:59:02.885Z,21.59
2018-12-06T10:00:12.078Z,21.54
2018-12-06T10:01:21.072Z,21.59
2018-12-06T10:02:30.274Z,21.54
2018-12-06T10:03:39.197Z,21.56
2018-12-06T10:04:48.163Z,21.56
2018-12-06T10:05:57.701Z,21.59
2018-12-06T10:07:06.892Z,21.64
2018-12-06T10:08:16.593Z,21.62
2018-12-06T10:09:25.788Z,21.56
2018-12-06T10:10:35.455Z,21.54
2018-12-06T10:11:44.658Z,21.53
2018-12-06T10:12:53.851Z,21.59
2018-12-06T10:14:03.533Z,21.54
2018-12-06T10:15:12.969Z,21.61
2018-12-06T10:16:22.715Z,21.58
2018-12-06T10:17:32.168Z,21.52
2018-12-06T10:18:41.624Z,21.58
2018-12-06T10:19:51.310Z,21.61
2018-12-06T10:21:00.749Z,21.65
2018-12-06T10:22:10.467Z,21.58
2018-12-06T10:23:19.930Z,21.61
2018-12-06T10:24:29.362Z,21.59
2018-12-06T10:25:39.313Z,21.54
2018-12-06T10:26:48.769Z,21.58
2018-12-06T10:27:57.961Z,21.56
2018-12-06T10:29:07.408Z,21.58
2018-12-06T10:30:16.639Z,21.59
2018-12-06T10:31:26.075Z,21.61
2018-12-06T10:32:35.265Z,21.61
2018-12-06T10:33:44.453Z,21.56
2018-12-06T10:34:58.313Z,21.62
2018-12-06T10:36:07.754Z,21.59
2018-12-06T10:37:16.948Z,21.64
2018-12-06T10:38:26.394Z,21.62
2018-12-06T10:39:35.574Z,21.67
2018-12-06T10:40:44.514Z,21.61
2018-12-06T10:41:53.941Z,21.62
2018-12-06T10:43:03.899Z,21.61
2018-12-06T10:44:13.568Z,21.62
2018-12-06T10:45:22.754Z,21.61
2018-12-06T10:46:32.486Z,21.62
2018-12-06T10:47:41.936Z,21.62
2018-12-06T10:48:51.372Z,21.58
2018-12-06T10:50:01.056Z,21.58
2018-12-06T10:51:12.193Z,21.58
2018-12-06T10:52:21.632Z,21.62
2018-12-06T10:53:31.320Z,21.59
2018-12-06T10:54:40.351Z,21.59
2018-12-06T10:55:49.782Z,21.65
2018-12-06T10:56:59.223Z,21.62
2018-12-06T10:58:08.403Z,21.59
2018-12-06T10:59:17.824Z,21.62
2018-12-06T11:00:26.526Z,21.64
2018-12-06T11:01:36.470Z,21.68
2018-12-06T11:02:45.925Z,21.59
2018-12-06T11:03:55.623Z,21.62
2018-12-06T11:05:04.321Z,21.62
2018-12-06T11:06:14.018Z,21.61
2018-12-06T11:07:23.716Z,21.61
2018-12-06T11:08:32.659Z,21.62
2018-12-06T11:09:42.362Z,21.59
2018-12-06T11:10:52.040Z,21.65
2018-12-06T11:12:01.491Z,21.65
2018-12-06T11:13:10.685Z,21.61
2018-12-06T11:14:20.383Z,21.62
2018-12-06T11:15:30.079Z,21.67
2018-12-06T11:16:39.792Z,21.64
2018-12-06T11:17:49.725Z,21.65
2018-12-06T11:18:58.920Z,21.58
2018-12-06T11:20:08.600Z,21.67
2018-12-06T11:21:17.783Z,21.62
2018-12-06T11:22:27.741Z,21.65
2018-12-06T11:23:37.177Z,21.59
2018-12-06T11:24:46.892Z,21.61
2018-12-06T11:25:56.106Z,21.64
2018-12-06T11:27:05.769Z,21.68
2018-12-06T11:28:14.718Z,21.59
2018-12-06T11:29:24.191Z,21.65
2018-12-06T11:30:33.642Z,21.64
2018-12-06T11:31:42.843Z,21.61
2018-12-06T11:32:52.283Z,21.65
2018-12-06T11:34:01.445Z,21.65
2018-12-06T11:35:11.128Z,21.61
2018-12-06T11:36:20.803Z,21.64
2018-12-06T11:37:30.230Z,21.61
2018-12-06T11:38:39.673Z,21.65
2018-12-06T11:39:49.353Z,21.65
2018-12-06T11:40:58.850Z,21.64
2018-12-06T11:42:08.538Z,21.62
2018-12-06T11:43:17.747Z,21.61
2018-12-06T11:44:27.212Z,21.61
2018-12-06T11:45:36.843Z,21.67
2018-12-06T11:46:45.828Z,21.67
2018-12-06T11:47:56.024Z,21.67
2018-12-06T11:49:05.546Z,21.68
2018-12-06T11:50:14.971Z,21.64
2018-12-06T11:51:24.698Z,21.67
2018-12-06T11:52:33.890Z,21.61
2018-12-06T11:53:43.353Z,21.62
2018-12-06T11:54:52.540Z,21.64
2018-12-06T11:56:01.493Z,21.62
2018-12-06T11:57:10.928Z,21.61
2018-12-06T11:58:20.612Z,21.67
2018-12-06T11:59:30.064Z,21.65
2018-12-06T12:00:39.266Z,21.59
2018-12-06T12:01:48.240Z,21.65
2018-12-06T12:02:57.188Z,21.64
2018-12-06T12:04:06.620Z,21.69
2018-12-06T12:05:16.071Z,21.64
2018-12-06T12:06:25.295Z,21.62
2018-12-06T12:07:34.481Z,21.64
2018-12-06T12:08:43.698Z,21.62
2018-12-06T12:09:52.886Z,21.64
2018-12-06T12:11:02.596Z,21.67
2018-12-06T12:12:12.278Z,21.71
2018-12-06T12:13:21.964Z,21.67
2018-12-06T12:14:31.411Z,21.62
2018-12-06T12:15:40.603Z,21.71
2018-12-06T12:16:50.067Z,21.65
2018-12-06T12:17:59.510Z,21.62
2018-12-06T12:19:08.444Z,21.61
2018-12-06T12:20:17.881Z,21.64
2018-12-06T12:21:26.570Z,21.62
2018-12-06T12:22:36.006Z,21.64
2018-12-06T12:23:45.486Z,21.69
2018-12-06T12:24:54.682Z,21.62
2018-12-06T12:26:03.857Z,21.68
2018-12-06T12:27:13.541Z,21.65
2018-12-06T12:28:22.993Z,21.64
2018-12-06T12:29:32.165Z,21.67
2018-12-06T12:30:42.108Z,21.64
2018-12-06T12:31:51.579Z,21.64
2018-12-06T12:33:01.263Z,21.65
2018-12-06T12:34:10.723Z,21.65
2018-12-06T12:35:21.317Z,21.65
2018-12-06T12:36:30.760Z,21.64
2018-12-06T12:37:39.942Z,21.64
2018-12-06T12:38:48.639Z,21.65
2018-12-06T12:39:57.856Z,21.64
2018-12-06T12:41:07.555Z,21.64
2018-12-06T12:42:16.749Z,21.64
2018-12-06T12:43:26.191Z,21.64
2018-12-06T12:44:35.113Z,21.67
2018-12-06T12:45:44.562Z,21.64
2018-12-06T12:46:53.750Z,21.64
2018-12-06T12:48:03.197Z,21.65
2018-12-06T12:49:12.159Z,21.64
2018-12-06T12:50:20.852Z,21.62
2018-12-06T12:51:30.554Z,21.68
2018-12-06T12:52:39.772Z,21.64
2018-12-06T12:53:49.742Z,21.64
2018-12-06T12:54:59.181Z,21.62
2018-12-06T12:56:08.625Z,21.62
2018-12-06T12:57:18.089Z,21.64
2018-12-06T12:58:27.514Z,21.64
2018-12-06T12:59:36.724Z,21.67
2018-12-06T13:00:45.482Z,21.59
2018-12-06T13:01:54.692Z,21.64
2018-12-06T13:03:04.406Z,21.67
2018-12-06T13:04:13.863Z,21.69
2018-12-06T13:05:23.067Z,21.65
2018-12-06T13:06:32.524Z,21.64
2018-12-06T13:07:41.737Z,21.69
2018-12-06T13:08:51.457Z,21.65
2018-12-06T13:10:00.902Z,21.64
2018-12-06T13:11:10.329Z,21.65
2018-12-06T13:12:19.819Z,21.65
2018-12-06T13:13:29.536Z,21.67
2018-12-06T13:14:39.222Z,21.65
2018-12-06T13:15:48.432Z,21.69
2018-12-06T13:16:57.630Z,21.69
2018-12-06T13:18:06.833Z,21.67
2018-12-06T13:19:16.298Z,21.65
2018-12-06T13:20:25.754Z,21.67
2018-12-06T13:21:35.214Z,21.64
2018-12-06T13:22:44.893Z,21.64
2018-12-06T13:23:53.866Z,21.64
2018-12-06T13:25:02.804Z,21.69
2018-12-06T13:26:12.489Z,21.64
2018-12-06T13:27:21.672Z,21.65
2018-12-06T13:28:31.128Z,21.62
2018-12-06T13:29:40.808Z,21.64
2018-12-06T13:30:50.529Z,21.64
2018-12-06T13:32:00.236Z,21.67
2018-12-06T13:33:09.954Z,21.67
2018-12-06T13:34:19.901Z,21.64
2018-12-06T13:35:29.633Z,21.62
2018-12-06T13:36:39.313Z,21.62
2018-12-06T13:37:48.823Z,21.65
2018-12-06T13:38:58.261Z,21.65
2018-12-06T13:40:08.523Z,21.65
2018-12-06T13:41:17.954Z,21.71
2018-12-06T13:42:28.324Z,21.62
2018-12-06T13:43:38.006Z,21.69
2018-12-06T13:44:47.218Z,21.67
2018-12-06T13:45:56.210Z,21.69
2018-12-06T13:47:05.381Z,21.65
2018-12-06T13:48:15.092Z,21.68
2018-12-06T13:49:24.417Z,21.65
2018-12-06T13:50:34.358Z,21.62
2018-12-06T13:51:43.605Z,21.67
2018-12-06T13:52:52.917Z,21.68
2018-12-06T13:54:02.348Z,21.64
2018-12-06T13:55:12.044Z,21.71
2018-12-06T13:56:21.521Z,21.65
2018-12-06T13:57:30.735Z,21.65
2018-12-06T13:58:39.701Z,21.67
2018-12-06T13:59:48.945Z,21.65
2018-12-06T14:00:59.143Z,21.71
2018-12-06T14:02:10.061Z,21.62
2018-12-06T14:03:19.764Z,21.64
2018-12-06T14:04:30.836Z,21.64
2018-12-06T14:05:40.561Z,21.62
2018-12-06T14:06:49.540Z,21.67
2018-12-06T14:07:59.003Z,21.59
2018-12-06T14:09:08.215Z,21.64
2018-12-06T14:10:17.926Z,21.62
2018-12-06T14:11:27.118Z,21.65
2018-12-06T14:12:36.842Z,21.62
2018-12-06T14:13:45.809Z,21.68
2018-12-06T14:14:54.998Z,21.71
2018-12-06T14:16:12.235Z,21.65
2018-12-06T14:17:21.678Z,21.67
2018-12-06T14:18:30.614Z,21.65
2018-12-06T14:19:40.097Z,21.65
2018-12-06T14:20:49.308Z,21.67
2018-12-06T14:21:58.979Z,21.65
2018-12-06T14:23:08.438Z,21.68
2018-12-06T14:24:17.388Z,21.64
2018-12-06T14:25:27.558Z,21.64
2018-12-06T14:26:37.010Z,21.65
2018-12-06T14:27:45.941Z,21.71
2018-12-06T14:28:55.369Z,21.65
2018-12-06T14:30:05.051Z,21.62
2018-12-06T14:31:14.007Z,21.65
2018-12-06T14:32:23.203Z,21.64
2018-12-06T14:33:32.910Z,21.67
2018-12-06T14:34:42.089Z,21.65
2018-12-06T14:35:51.846Z,21.67
2018-12-06T14:37:06.580Z,21.64
2018-12-06T14:38:15.515Z,21.67
2018-12-06T14:39:25.476Z,21.65
2018-12-06T14:40:34.674Z,21.65
2018-12-06T14:41:44.136Z,21.65
2018-12-06T14:42:53.589Z,21.67
2018-12-06T14:44:03.039Z,21.65
2018-12-06T14:45:12.230Z,21.62
2018-12-06T14:46:24.042Z,21.62
2018-12-06T14:47:33.737Z,21.65
2018-12-06T14:48:42.928Z,21.65
2018-12-06T14:49:52.393Z,21.64
2018-12-06T14:51:02.102Z,21.65
2018-12-06T14:52:11.555Z,21.68
2018-12-06T14:53:20.995Z,21.65
2018-12-06T14:54:30.673Z,21.64
2018-12-06T14:55:39.858Z,21.62
2018-12-06T14:56:49.303Z,21.64